createdAt,value
2019-04-16T00:09:37.469Z,33.00
2019-04-16T00:39:41.613Z,24.43
2019-04-16T01:09:45.374Z,22.15
2019-04-16T01:40:02.876Z,23.15
2019-04-16T02:10:07.976Z,32.93
2019-04-16T02:40:17.306Z,36.10
2019-04-16T03:10:17.533Z,27.62
2019-04-16T03:40:24.682Z,27.22
2019-04-16T04:10:30.959Z,26.27
2019-04-16T04:40:43.808Z,26.85
2019-04-16T05:10:42.746Z,26.52
2019-04-16T05:40:43.351Z,24.57
2019-04-16T06:10:50.393Z,26.85
2019-04-16T06:41:03.083Z,30.23
2019-04-16T07:11:07.403Z,31.30
2019-04-16T07:41:17.119Z,24.70
2019-04-16T08:11:23.030Z,14.20
2019-04-16T08:41:26.837Z,7.50
2019-04-16T09:11:35.055Z,7.17
2019-04-16T09:41:39.688Z,7.77
2019-04-16T10:11:43.574Z,6.85
2019-04-16T10:41:48.989Z,7.90
2019-04-16T11:11:52.986Z,8.83
2019-04-16T11:41:56.791Z,13.45
2019-04-16T12:12:05.385Z,8.90
2019-04-16T12:42:10.774Z,14.68
2019-04-16T13:12:25.066Z,8.33
2019-04-16T13:42:29.011Z,7.40
2019-04-16T14:12:42.124Z,7.47
2019-04-16T14:42:40.199Z,7.83
2019-04-16T15:12:45.824Z,7.47
2019-04-16T15:43:06.690Z,6.55
2019-04-16T16:13:10.994Z,6.12
2019-04-16T16:43:15.149Z,7.15
2019-04-16T17:13:21.123Z,7.55
2019-04-16T17:43:30.878Z,10.13
2019-04-16T18:13:39.239Z,10.53
2019-04-16T18:43:47.537Z,12.25
2019-04-16T19:13:51.706Z,14.90
2019-04-16T19:43:55.882Z,14.65
2019-04-16T20:14:02.723Z,13.20
2019-04-16T20:44:09.099Z,11.38
2019-04-16T21:14:11.837Z,12.68
2019-04-16T21:44:15.939Z,10.15
2019-04-16T22:14:22.261Z,11.25
2019-04-16T22:44:43.323Z,11.68
2019-04-16T23:14:47.219Z,13.00
2019-04-16T23:45:11.085Z,14.13
